sensor_id;sensor_type;location;lat;lon;timestamp;temperature;humidity
3794;DHT22;1912;51.358;12.282;2022-12-26T04:45:19;11.10;1.00
3794;DHT22;1912;51.358;12.282;2022-12-26T04:47:45;11.10;1.00
3794;DHT22;1912;51.358;12.282;2022-12-26T04:50:31;11.10;1.00
3794;DHT22;1912;51.358;12.282;2022-12-26T04:52:57;11.10;1.00
3794;DHT22;1912;51.358;12.282;2022-12-26T04:55:31;11.00;1.00
3794;DHT22;1912;51.358;12.282;2022-12-26T04:57:58;11.00;1.00
3794;DHT22;1912;51.358;12.282;2022-12-26T05:00:26;10.90;1.00
3794;DHT22;1912;51.358;12.282;2022-12-26T05:02:53;10.80;1.00
3794;DHT22;1912;51.358;12.282;2022-12-26T05:05:41;10.80;1.00
3794;DHT22;1912;51.358;12.282;2022-12-26T05:08:34;10.80;1.00
3794;DHT22;1912;51.358;12.282;2022-12-26T05:11:26;10.80;1.00
3794;DHT22;1912;51.358;12.282;2022-12-26T05:13:53;10.70;1.00
3794;DHT22;1912;51.358;12.282;2022-12-26T05:16:20;10.60;1.00
3794;DHT22;1912;51.358;12.282;2022-12-26T05:19:05;10.40;1.00
3794;DHT22;1912;51.358;12.282;2022-12-26T05:21:49;10.40;1.00
3794;DHT22;1912;51.358;12.282;2022-12-26T05:24:37;10.30;1.00
3794;DHT22;1912;51.358;12.282;2022-12-26T05:27:23;10.20;1.00
3794;DHT22;1912;51.358;12.282;2022-12-26T05:30:08;10.20;1.00
3794;DHT22;1912;51.358;12.282;2022-12-26T05:32:34;10.20;1.00
3794;DHT22;1912;51.358;12.282;2022-12-26T05:35:18;10.10;1.00
3794;DHT22;1912;51.358;12.282;2022-12-26T05:37:44;10.10;1.00
3794;DHT22;1912;51.358;12.282;2022-12-26T05:40:10;10.00;1.00
3794;DHT22;1912;51.358;12.282;2022-12-26T05:42:36;10.10;1.00
3794;DHT22;1912;51.358;12.282;2022-12-26T05:45:02;10.20;1.00
3794;DHT22;1912;51.358;12.282;2022-12-26T05:47:27;10.10;1.00
3794;DHT22;1912;51.358;12.282;2022-12-26T05:49:54;10.10;1.00
3794;DHT22;1912;51.358;12.282;2022-12-26T05:52:20;10.00;1.00
3794;DHT22;1912;51.358;12.282;2022-12-26T05:54:45;10.00;1.00
3794;DHT22;1912;51.358;12.282;2022-12-26T05:57:11;9.90;1.00
3794;DHT22;1912;51.358;12.282;2022-12-26T05:59:37;9.90;1.00
3794;DHT22;1912;51.358;12.282;2022-12-26T06:02:02;9.90;1.00
3794;DHT22;1912;51.358;12.282;2022-12-26T06:04:28;9.90;1.00
3794;DHT22;1912;51.358;12.282;2022-12-26T06:06:54;9.80;1.00
3794;DHT22;1912;51.358;12.282;2022-12-26T06:09:21;9.80;1.00
3794;DHT22;1912;51.358;12.282;2022-12-26T06:11:48;9.80;1.00
3794;DHT22;1912;51.358;12.282;2022-12-26T06:14:14;9.80;1.00
3794;DHT22;1912;51.358;12.282;2022-12-26T06:16:40;9.70;1.00
3794;DHT22;1912;51.358;12.282;2022-12-26T06:19:06;9.60;1.00
3794;DHT22;1912;51.358;12.282;2022-12-26T06:21:32;9.50;1.00
3794;DHT22;1912;51.358;12.282;2022-12-26T06:23:58;9.50;1.00
3794;DHT22;1912;51.358;12.282;2022-12-26T06:26:23;9.40;1.00
3794;DHT22;1912;51.358;12.282;2022-12-26T06:28:49;9.30;1.00
3794;DHT22;1912;51.358;12.282;2022-12-26T06:31:18;9.20;1.00
3794;DHT22;1912;51.358;12.282;2022-12-26T06:33:46;9.10;1.00
3794;DHT22;1912;51.358;12.282;2022-12-26T06:36:14;9.10;1.00
3794;DHT22;1912;51.358;12.282;2022-12-26T06:38:42;9.00;1.00
3794;DHT22;1912;51.358;12.282;2022-12-26T06:41:11;9.00;1.00
3794;DHT22;1912;51.358;12.282;2022-12-26T06:43:39;8.90;1.00
3794;DHT22;1912;51.358;12.282;2022-12-26T06:46:06;8.80;1.00
3794;DHT22;1912;51.358;12.282;2022-12-26T06:48:33;8.80;1.00
3794;DHT22;1912;51.358;12.282;2022-12-26T06:51:05;8.80;1.00
3794;DHT22;1912;51.358;12.282;2022-12-26T06:53:35;8.80;1.00
3794;DHT22;1912;51.358;12.282;2022-12-26T06:56:12;8.80;1.00
3794;DHT22;1912;51.358;12.282;2022-12-26T06:58:58;8.80;1.00
3794;DHT22;1912;51.358;12.282;2022-12-26T07:01:27;8.90;1.00
3794;DHT22;1912;51.358;12.282;2022-12-26T07:03:54;9.10;1.00
3794;DHT22;1912;51.358;12.282;2022-12-26T07:06:28;9.30;1.00
3794;DHT22;1912;51.358;12.282;2022-12-26T07:09:00;9.40;1.00
3794;DHT22;1912;51.358;12.282;2022-12-26T07:11:31;9.50;1.00
3794;DHT22;1912;51.358;12.282;2022-12-26T07:13:57;9.60;1.00
3794;DHT22;1912;51.358;12.282;2022-12-26T07:16:23;9.60;1.00
3794;DHT22;1912;51.358;12.282;2022-12-26T07:18:54;9.70;1.00
3794;DHT22;1912;51.358;12.282;2022-12-26T07:21:20;9.80;1.00
3794;DHT22;1912;51.358;12.282;2022-12-26T07:23:46;9.80;1.00
3794;DHT22;1912;51.358;12.282;2022-12-26T07:26:12;9.90;1.00
3794;DHT22;1912;51.358;12.282;2022-12-26T07:28:38;9.90;1.00
3794;DHT22;1912;51.358;12.282;2022-12-26T07:31:04;9.90;1.00
3794;DHT22;1912;51.358;12.282;2022-12-26T07:33:30;10.00;1.00
3794;DHT22;1912;51.358;12.282;2022-12-26T07:36:04;10.10;1.00
3794;DHT22;1912;51.358;12.282;2022-12-26T07:38:31;10.20;1.00
3794;DHT22;1912;51.358;12.282;2022-12-26T07:40:57;10.30;1.00
3794;DHT22;1912;51.358;12.282;2022-12-26T07:43:24;10.40;1.00
3794;DHT22;1912;51.358;12.282;2022-12-26T07:45:50;10.50;1.00
3794;DHT22;1912;51.358;12.282;2022-12-26T07:48:16;10.60;1.00
3794;DHT22;1912;51.358;12.282;2022-12-26T07:50:42;10.70;1.00
3794;DHT22;1912;51.358;12.282;2022-12-26T07:53:12;10.70;1.00
3794;DHT22;1912;51.358;12.282;2022-12-26T07:55:38;10.70;1.00
3794;DHT22;1912;51.358;12.282;2022-12-26T07:58:04;10.70;1.00
3794;DHT22;1912;51.358;12.282;2022-12-26T08:00:30;10.80;1.00
3794;DHT22;1912;51.358;12.282;2022-12-26T08:02:55;10.80;1.00
3794;DHT22;1912;51.358;12.282;2022-12-26T08:05:21;10.90;1.00
3794;DHT22;1912;51.358;12.282;2022-12-26T08:07:47;10.90;1.00
3794;DHT22;1912;51.358;12.282;2022-12-26T08:10:14;10.90;1.00
3794;DHT22;1912;51.358;12.282;2022-12-26T08:12:40;10.90;1.00
3794;DHT22;1912;51.358;12.282;2022-12-26T08:15:06;10.90;1.00
3794;DHT22;1912;51.358;12.282;2022-12-26T08:17:32;10.90;1.00
3794;DHT22;1912;51.358;12.282;2022-12-26T08:19:58;10.80;1.00
3794;DHT22;1912;51.358;12.282;2022-12-26T08:22:23;10.90;1.00
3794;DHT22;1912;51.358;12.282;2022-12-26T08:24:49;10.90;1.00
3794;DHT22;1912;51.358;12.282;2022-12-26T08:27:15;11.00;1.00
3794;DHT22;1912;51.358;12.282;2022-12-26T08:29:41;11.00;1.00
3794;DHT22;1912;51.358;12.282;2022-12-26T08:32:06;10.90;1.00
3794;DHT22;1912;51.358;12.282;2022-12-26T08:34:33;10.80;1.00
3794;DHT22;1912;51.358;12.282;2022-12-26T08:36:59;10.90;1.00
3794;DHT22;1912;51.358;12.282;2022-12-26T08:39:25;10.90;1.00
3794;DHT22;1912;51.358;12.282;2022-12-26T08:41:51;10.80;1.00
3794;DHT22;1912;51.358;12.282;2022-12-26T08:44:17;10.90;1.00
3794;DHT22;1912;51.358;12.282;2022-12-26T08:46:43;10.90;1.00
3794;DHT22;1912;51.358;12.282;2022-12-26T08:49:09;10.80;1.00
3794;DHT22;1912;51.358;12.282;2022-12-26T08:51:35;10.80;1.00
3794;DHT22;1912;51.358;12.282;2022-12-26T08:54:01;10.80;1.00
3794;DHT22;1912;51.358;12.282;2022-12-26T08:56:27;10.80;1.00
3794;DHT22;1912;51.358;12.282;2022-12-26T08:58:53;10.70;1.00
3794;DHT22;1912;51.358;12.282;2022-12-26T09:01:23;10.80;1.00
3794;DHT22;1912;51.358;12.282;2022-12-26T09:03:52;10.80;1.00
3794;DHT22;1912;51.358;12.282;2022-12-26T09:06:22;10.80;1.00
3794;DHT22;1912;51.358;12.282;2022-12-26T09:08:48;10.80;1.00
3794;DHT22;1912;51.358;12.282;2022-12-26T09:11:20;10.80;1.00
3794;DHT22;1912;51.358;12.282;2022-12-26T09:13:51;10.80;1.00
3794;DHT22;1912;51.358;12.282;2022-12-26T09:16:20;11.00;1.00
3794;DHT22;1912;51.358;12.282;2022-12-26T09:18:56;11.10;1.00
3794;DHT22;1912;51.358;12.282;2022-12-26T09:21:23;11.20;1.00
3794;DHT22;1912;51.358;12.282;2022-12-26T09:23:58;11.30;1.00
3794;DHT22;1912;51.358;12.282;2022-12-26T09:26:28;11.40;1.00
3794;DHT22;1912;51.358;12.282;2022-12-26T09:28:54;11.40;1.00
3794;DHT22;1912;51.358;12.282;2022-12-26T09:31:22;11.40;1.00
3794;DHT22;1912;51.358;12.282;2022-12-26T09:33:49;11.30;1.00
3794;DHT22;1912;51.358;12.282;2022-12-26T09:36:18;11.40;1.00
3794;DHT22;1912;51.358;12.282;2022-12-26T09:38:46;11.40;1.00
3794;DHT22;1912;51.358;12.282;2022-12-26T09:47:34;11.30;1.00
3794;DHT22;1912;51.358;12.282;2022-12-26T09:50:23;11.30;1.00
3794;DHT22;1912;51.358;12.282;2022-12-26T09:53:04;11.20;1.00
3794;DHT22;1912;51.358;12.282;2022-12-26T09:55:52;11.30;1.00
3794;DHT22;1912;51.358;12.282;2022-12-26T10:01:25;11.10;1.00
3794;DHT22;1912;51.358;12.282;2022-12-26T10:03:55;11.00;1.00
3794;DHT22;1912;51.358;12.282;2022-12-26T10:06:30;11.00;1.00
3794;DHT22;1912;51.358;12.282;2022-12-26T10:09:21;10.90;1.00
3794;DHT22;1912;51.358;12.282;2022-12-26T10:11:55;10.80;1.00
3794;DHT22;1912;51.358;12.282;2022-12-26T10:14:39;10.70;1.00
3794;DHT22;1912;51.358;12.282;2022-12-26T10:17:37;10.70;1.00
3794;DHT22;1912;51.358;12.282;2022-12-26T10:37:06;10.60;1.00
3794;DHT22;1912;51.358;12.282;2022-12-26T10:39:44;10.60;1.00
3794;DHT22;1912;51.358;12.282;2022-12-26T10:42:37;10.70;1.00
3794;DHT22;1912;51.358;12.282;2022-12-26T10:45:25;10.70;1.00
3794;DHT22;1912;51.358;12.282;2022-12-26T10:47:56;10.70;1.00
3794;DHT22;1912;51.358;12.282;2022-12-26T10:50:25;10.60;1.00
3794;DHT22;1912;51.358;12.282;2022-12-26T10:52:52;10.50;1.00
3794;DHT22;1912;51.358;12.282;2022-12-26T10:55:19;10.40;1.00
3794;DHT22;1912;51.358;12.282;2022-12-26T10:57:51;10.30;1.00
3794;DHT22;1912;51.358;12.282;2022-12-26T11:00:20;10.20;1.00
3794;DHT22;1912;51.358;12.282;2022-12-26T11:03:07;10.10;1.00
3794;DHT22;1912;51.358;12.282;2022-12-26T11:05:37;10.10;1.00
3794;DHT22;1912;51.358;12.282;2022-12-26T11:08:32;10.10;1.00
3794;DHT22;1912;51.358;12.282;2022-12-26T11:11:23;10.00;1.00
3794;DHT22;1912;51.358;12.282;2022-12-26T11:13:55;10.00;1.00
3794;DHT22;1912;51.358;12.282;2022-12-26T11:16:26;10.00;1.00
3794;DHT22;1912;51.358;12.282;2022-12-26T11:18:58;10.00;1.00
3794;DHT22;1912;51.358;12.282;2022-12-26T11:21:27;9.90;1.00
3794;DHT22;1912;51.358;12.282;2022-12-26T11:26:31;9.90;1.00
3794;DHT22;1912;51.358;12.282;2022-12-26T11:29:14;9.90;1.00
3794;DHT22;1912;51.358;12.282;2022-12-26T11:32:02;9.80;1.00
3794;DHT22;1912;51.358;12.282;2022-12-26T11:34:40;9.80;1.00
3794;DHT22;1912;51.358;12.282;2022-12-26T11:37:41;9.70;1.00
3794;DHT22;1912;51.358;12.282;2022-12-26T11:40:16;9.60;1.00
3794;DHT22;1912;51.358;12.282;2022-12-26T11:42:48;9.50;1.00
3794;DHT22;1912;51.358;12.282;2022-12-26T11:45:21;9.50;1.00
3794;DHT22;1912;51.358;12.282;2022-12-26T11:47:48;9.40;1.00
3794;DHT22;1912;51.358;12.282;2022-12-26T11:50:15;9.40;1.00
3794;DHT22;1912;51.358;12.282;2022-12-26T11:55:32;9.40;1.00
3794;DHT22;1912;51.358;12.282;2022-12-26T12:00:38;9.40;1.00
3794;DHT22;1912;51.358;12.282;2022-12-26T12:03:35;9.40;1.00
3794;DHT22;1912;51.358;12.282;2022-12-26T12:06:21;9.40;1.00
3794;DHT22;1912;51.358;12.282;2022-12-26T12:12:17;9.40;1.00
3794;DHT22;1912;51.358;12.282;2022-12-26T12:18:21;9.30;1.00
3794;DHT22;1912;51.358;12.282;2022-12-26T12:21:19;9.30;1.00
3794;DHT22;1912;51.358;12.282;2022-12-26T12:24:29;9.30;1.00
3794;DHT22;1912;51.358;12.282;2022-12-26T12:33:55;9.30;1.00
3794;DHT22;1912;51.358;12.282;2022-12-26T12:36:52;9.30;1.00
3794;DHT22;1912;51.358;12.282;2022-12-26T12:39:48;9.30;1.00
3794;DHT22;1912;51.358;12.282;2022-12-26T12:42:36;9.30;1.00
3794;DHT22;1912;51.358;12.282;2022-12-26T12:45:37;9.30;1.00
3794;DHT22;1912;51.358;12.282;2022-12-26T12:48:45;9.30;1.00
3794;DHT22;1912;51.358;12.282;2022-12-26T12:52:02;9.40;1.00
3794;DHT22;1912;51.358;12.282;2022-12-26T13:01:14;9.50;1.00
3794;DHT22;1912;51.358;12.282;2022-12-26T13:06:35;9.60;1.00
3794;DHT22;1912;51.358;12.282;2022-12-26T13:09:16;9.60;1.00
3794;DHT22;1912;51.358;12.282;2022-12-26T13:11:51;9.60;1.00
3794;DHT22;1912;51.358;12.282;2022-12-26T13:14:23;9.70;1.00
3794;DHT22;1912;51.358;12.282;2022-12-26T13:16:57;9.70;1.00
3794;DHT22;1912;51.358;12.282;2022-12-26T13:19:31;9.70;1.00
3794;DHT22;1912;51.358;12.282;2022-12-26T13:22:12;9.80;1.00
3794;DHT22;1912;51.358;12.282;2022-12-26T13:24:45;9.70;1.00
3794;DHT22;1912;51.358;12.282;2022-12-26T13:27:30;9.80;1.00
3794;DHT22;1912;51.358;12.282;2022-12-26T13:30:00;9.80;1.00
3794;DHT22;1912;51.358;12.282;2022-12-26T13:32:30;9.80;1.00
3794;DHT22;1912;51.358;12.282;2022-12-26T13:34:58;9.90;1.00
3794;DHT22;1912;51.358;12.282;2022-12-26T13:42:50;9.90;1.00
3794;DHT22;1912;51.358;12.282;2022-12-26T13:50:53;9.90;1.00
3794;DHT22;1912;51.358;12.282;2022-12-26T13:55:59;9.90;1.00
3794;DHT22;1912;51.358;12.282;2022-12-26T13:58:44;9.90;1.00
3794;DHT22;1912;51.358;12.282;2022-12-26T14:01:37;9.90;1.00
3794;DHT22;1912;51.358;12.282;2022-12-26T14:15:40;9.90;1.00
3794;DHT22;1912;51.358;12.282;2022-12-26T14:21:01;9.90;1.00
3794;DHT22;1912;51.358;12.282;2022-12-26T14:32:54;9.70;1.00
3794;DHT22;1912;51.358;12.282;2022-12-26T14:38:54;9.60;1.00
3794;DHT22;1912;51.358;12.282;2022-12-26T14:41:23;9.60;1.00
3794;DHT22;1912;51.358;12.282;2022-12-26T14:54:53;9.50;1.00
3794;DHT22;1912;51.358;12.282;2022-12-26T15:03:15;9.30;1.00
3794;DHT22;1912;51.358;12.282;2022-12-26T15:05:49;9.30;1.00
3794;DHT22;1912;51.358;12.282;2022-12-26T15:08:49;9.30;1.00
3794;DHT22;1912;51.358;12.282;2022-12-26T15:14:41;9.30;1.00
3794;DHT22;1912;51.358;12.282;2022-12-26T15:20:26;9.30;1.00
3794;DHT22;1912;51.358;12.282;2022-12-26T15:23:36;9.30;1.00
3794;DHT22;1912;51.358;12.282;2022-12-26T15:33:01;9.30;1.00
3794;DHT22;1912;51.358;12.282;2022-12-26T15:36:03;9.20;1.00
3794;DHT22;1912;51.358;12.282;2022-12-26T15:44:59;9.10;1.00
3794;DHT22;1912;51.358;12.282;2022-12-26T15:47:44;9.10;1.00
3794;DHT22;1912;51.358;12.282;2022-12-26T15:50:30;9.10;1.00
3794;DHT22;1912;51.358;12.282;2022-12-26T15:53:18;9.00;1.00
3794;DHT22;1912;51.358;12.282;2022-12-26T16:02:13;9.00;1.00
3794;DHT22;1912;51.358;12.282;2022-12-26T16:10:41;8.90;1.00
3794;DHT22;1912;51.358;12.282;2022-12-26T16:15:56;9.00;1.00
3794;DHT22;1912;51.358;12.282;2022-12-26T16:18:31;9.00;1.00
3794;DHT22;1912;51.358;12.282;2022-12-26T16:21:06;9.00;1.00
3794;DHT22;1912;51.358;12.282;2022-12-26T16:24:00;9.00;1.00
3794;DHT22;1912;51.358;12.282;2022-12-26T16:26:29;9.00;1.00
3794;DHT22;1912;51.358;12.282;2022-12-26T16:29:04;9.00;1.00
3794;DHT22;1912;51.358;12.282;2022-12-26T16:31:30;9.00;1.00
3794;DHT22;1912;51.358;12.282;2022-12-26T16:33:57;9.00;1.00
3794;DHT22;1912;51.358;12.282;2022-12-26T16:36:26;9.00;1.00
3794;DHT22;1912;51.358;12.282;2022-12-26T16:38:53;8.90;1.00
3794;DHT22;1912;51.358;12.282;2022-12-26T16:41:20;9.00;1.00
3794;DHT22;1912;51.358;12.282;2022-12-26T16:43:54;8.90;1.00
3794;DHT22;1912;51.358;12.282;2022-12-26T16:46:23;9.00;1.00
3794;DHT22;1912;51.358;12.282;2022-12-26T16:48:56;8.90;1.00
3794;DHT22;1912;51.358;12.282;2022-12-26T16:51:38;9.00;1.00
3794;DHT22;1912;51.358;12.282;2022-12-26T16:54:23;8.90;1.00
3794;DHT22;1912;51.358;12.282;2022-12-26T16:57:04;8.90;1.00
3794;DHT22;1912;51.358;12.282;2022-12-26T16:59:50;8.90;1.00
3794;DHT22;1912;51.358;12.282;2022-12-26T17:02:24;8.90;1.00
3794;DHT22;1912;51.358;12.282;2022-12-26T17:05:20;8.90;1.00
3794;DHT22;1912;51.358;12.282;2022-12-26T17:07:51;8.90;1.00
3794;DHT22;1912;51.358;12.282;2022-12-26T17:10:31;8.90;1.00
3794;DHT22;1912;51.358;12.282;2022-12-26T17:13:06;8.90;1.00
3794;DHT22;1912;51.358;12.282;2022-12-26T17:15:36;8.90;1.00
3794;DHT22;1912;51.358;12.282;2022-12-26T17:18:41;8.90;1.00
3794;DHT22;1912;51.358;12.282;2022-12-26T17:21:28;8.90;1.00
3794;DHT22;1912;51.358;12.282;2022-12-26T17:24:10;8.90;1.00
3794;DHT22;1912;51.358;12.282;2022-12-26T17:26:49;8.90;1.00
3794;DHT22;1912;51.358;12.282;2022-12-26T17:29:36;8.90;1.00
3794;DHT22;1912;51.358;12.282;2022-12-26T17:32:35;8.90;1.00
3794;DHT22;1912;51.358;12.282;2022-12-26T17:35:13;9.00;1.00
3794;DHT22;1912;51.358;12.282;2022-12-26T17:37:41;9.00;1.00
3794;DHT22;1912;51.358;12.282;2022-12-26T17:42:45;9.00;1.00
3794;DHT22;1912;51.358;12.282;2022-12-26T17:45:16;9.00;1.00
3794;DHT22;1912;51.358;12.282;2022-12-26T17:47:53;9.00;1.00
3794;DHT22;1912;51.358;12.282;2022-12-26T17:50:28;9.00;1.00
3794;DHT22;1912;51.358;12.282;2022-12-26T17:55:46;9.00;1.00
3794;DHT22;1912;51.358;12.282;2022-12-26T17:58:13;9.00;1.00
3794;DHT22;1912;51.358;12.282;2022-12-26T18:00:39;9.00;1.00
3794;DHT22;1912;51.358;12.282;2022-12-26T18:03:06;9.10;1.00
3794;DHT22;1912;51.358;12.282;2022-12-26T18:05:32;9.10;1.00
3794;DHT22;1912;51.358;12.282;2022-12-26T18:07:59;9.10;1.00
3794;DHT22;1912;51.358;12.282;2022-12-26T18:10:28;9.20;1.00
3794;DHT22;1912;51.358;12.282;2022-12-26T18:12:56;9.20;1.00
3794;DHT22;1912;51.358;12.282;2022-12-26T18:15:24;9.20;1.00
3794;DHT22;1912;51.358;12.282;2022-12-26T18:17:52;9.20;1.00
3794;DHT22;1912;51.358;12.282;2022-12-26T18:20:24;9.20;1.00
3794;DHT22;1912;51.358;12.282;2022-12-26T18:22:51;9.30;1.00
3794;DHT22;1912;51.358;12.282;2022-12-26T18:25:20;9.20;1.00
3794;DHT22;1912;51.358;12.282;2022-12-26T18:27:47;9.00;1.00
3794;DHT22;1912;51.358;12.282;2022-12-26T18:32:48;8.80;1.00
3794;DHT22;1912;51.358;12.282;2022-12-26T18:35:16;8.70;1.00
3794;DHT22;1912;51.358;12.282;2022-12-26T18:37:50;8.60;1.00
3794;DHT22;1912;51.358;12.282;2022-12-26T18:40:40;8.60;1.00
3794;DHT22;1912;51.358;12.282;2022-12-26T18:43:07;8.50;1.00
3794;DHT22;1912;51.358;12.282;2022-12-26T18:45:34;8.40;1.00
3794;DHT22;1912;51.358;12.282;2022-12-26T18:48:02;8.30;1.00
3794;DHT22;1912;51.358;12.282;2022-12-26T18:50:30;8.20;1.00
3794;DHT22;1912;51.358;12.282;2022-12-26T18:52:56;8.10;1.00
3794;DHT22;1912;51.358;12.282;2022-12-26T18:55:23;8.00;1.00
3794;DHT22;1912;51.358;12.282;2022-12-26T18:57:50;8.00;1.00
3794;DHT22;1912;51.358;12.282;2022-12-26T19:00:17;7.90;1.00
3794;DHT22;1912;51.358;12.282;2022-12-26T19:02:44;7.90;1.00
3794;DHT22;1912;51.358;12.282;2022-12-26T19:05:19;7.80;1.00
3794;DHT22;1912;51.358;12.282;2022-12-26T19:07:48;7.80;1.00
3794;DHT22;1912;51.358;12.282;2022-12-26T19:10:19;7.80;1.00
3794;DHT22;1912;51.358;12.282;2022-12-26T19:12:47;7.70;1.00
3794;DHT22;1912;51.358;12.282;2022-12-26T19:15:13;7.70;1.00
3794;DHT22;1912;51.358;12.282;2022-12-26T19:17:39;7.70;1.00
3794;DHT22;1912;51.358;12.282;2022-12-26T19:20:07;7.60;1.00
3794;DHT22;1912;51.358;12.282;2022-12-26T19:22:42;7.60;1.00
3794;DHT22;1912;51.358;12.282;2022-12-26T19:25:08;7.50;1.00
3794;DHT22;1912;51.358;12.282;2022-12-26T19:27:34;7.30;1.00
3794;DHT22;1912;51.358;12.282;2022-12-26T19:29:59;7.30;1.00
3794;DHT22;1912;51.358;12.282;2022-12-26T19:32:25;7.10;1.00
3794;DHT22;1912;51.358;12.282;2022-12-26T19:34:51;7.10;1.00
3794;DHT22;1912;51.358;12.282;2022-12-26T19:37:23;7.00;1.00
3794;DHT22;1912;51.358;12.282;2022-12-26T19:39:49;7.00;1.00
3794;DHT22;1912;51.358;12.282;2022-12-26T19:42:15;6.90;1.00
3794;DHT22;1912;51.358;12.282;2022-12-26T19:44:41;6.90;1.00
3794;DHT22;1912;51.358;12.282;2022-12-26T19:47:08;6.80;1.00
3794;DHT22;1912;51.358;12.282;2022-12-26T19:49:34;6.90;1.00
3794;DHT22;1912;51.358;12.282;2022-12-26T19:52:00;6.80;1.00
3794;DHT22;1912;51.358;12.282;2022-12-26T19:54:25;6.80;1.00
3794;DHT22;1912;51.358;12.282;2022-12-26T19:56:51;6.80;1.00
3794;DHT22;1912;51.358;12.282;2022-12-26T19:59:17;6.70;1.00
3794;DHT22;1912;51.358;12.282;2022-12-26T20:01:42;6.70;1.00
3794;DHT22;1912;51.358;12.282;2022-12-26T20:04:08;6.70;1.00
3794;DHT22;1912;51.358;12.282;2022-12-26T20:06:36;6.70;1.00
3794;DHT22;1912;51.358;12.282;2022-12-26T20:09:12;6.70;1.00
3794;DHT22;1912;51.358;12.282;2022-12-26T20:11:41;6.60;1.00
3794;DHT22;1912;51.358;12.282;2022-12-26T20:14:12;6.60;1.00
3794;DHT22;1912;51.358;12.282;2022-12-26T20:16:40;6.50;1.00
3794;DHT22;1912;51.358;12.282;2022-12-26T20:19:05;6.40;1.00
3794;DHT22;1912;51.358;12.282;2022-12-26T20:21:31;6.50;1.00
3794;DHT22;1912;51.358;12.282;2022-12-26T20:23:58;6.40;1.00
3794;DHT22;1912;51.358;12.282;2022-12-26T20:26:25;6.30;1.00
3794;DHT22;1912;51.358;12.282;2022-12-26T20:28:55;6.30;1.00
3794;DHT22;1912;51.358;12.282;2022-12-26T20:31:22;6.20;1.00
3794;DHT22;1912;51.358;12.282;2022-12-26T20:33:50;6.10;1.00
3794;DHT22;1912;51.358;12.282;2022-12-26T20:36:21;6.10;1.00
3794;DHT22;1912;51.358;12.282;2022-12-26T20:38:50;6.10;1.00
3794;DHT22;1912;51.358;12.282;2022-12-26T20:41:20;6.10;1.00
3794;DHT22;1912;51.358;12.282;2022-12-26T20:43:47;6.10;1.00
3794;DHT22;1912;51.358;12.282;2022-12-26T20:46:28;6.10;1.00
3794;DHT22;1912;51.358;12.282;2022-12-26T20:48:56;6.10;1.00
3794;DHT22;1912;51.358;12.282;2022-12-26T20:51:27;6.10;1.00
3794;DHT22;1912;51.358;12.282;2022-12-26T20:53:59;6.10;1.00
3794;DHT22;1912;51.358;12.282;2022-12-26T20:56:25;6.00;1.00
3794;DHT22;1912;51.358;12.282;2022-12-26T20:58:51;6.00;1.00
3794;DHT22;1912;51.358;12.282;2022-12-26T21:01:20;6.10;1.00
3794;DHT22;1912;51.358;12.282;2022-12-26T21:03:48;6.00;1.00
3794;DHT22;1912;51.358;12.282;2022-12-26T21:06:22;5.90;1.00
3794;DHT22;1912;51.358;12.282;2022-12-26T21:08:50;6.00;1.00
3794;DHT22;1912;51.358;12.282;2022-12-26T21:11:20;5.90;1.00
3794;DHT22;1912;51.358;12.282;2022-12-26T21:13:59;5.80;1.00
3794;DHT22;1912;51.358;12.282;2022-12-26T21:16:29;5.80;1.00
3794;DHT22;1912;51.358;12.282;2022-12-26T21:19:00;5.90;1.00
3794;DHT22;1912;51.358;12.282;2022-12-26T21:21:28;5.80;1.00
3794;DHT22;1912;51.358;12.282;2022-12-26T21:23:58;5.80;1.00
3794;DHT22;1912;51.358;12.282;2022-12-26T21:26:25;5.70;1.00
3794;DHT22;1912;51.358;12.282;2022-12-26T21:28:59;5.70;1.00
3794;DHT22;1912;51.358;12.282;2022-12-26T21:31:27;5.70;1.00
3794;DHT22;1912;51.358;12.282;2022-12-26T21:33:55;5.70;1.00
3794;DHT22;1912;51.358;12.282;2022-12-26T21:36:22;5.60;1.00
3794;DHT22;1912;51.358;12.282;2022-12-26T21:38:48;5.60;1.00
3794;DHT22;1912;51.358;12.282;2022-12-26T21:41:14;5.60;1.00
3794;DHT22;1912;51.358;12.282;2022-12-26T21:43:40;5.50;1.00
3794;DHT22;1912;51.358;12.282;2022-12-26T21:46:08;5.50;1.00
3794;DHT22;1912;51.358;12.282;2022-12-26T21:48:35;5.50;1.00
3794;DHT22;1912;51.358;12.282;2022-12-26T21:51:05;5.50;1.00
3794;DHT22;1912;51.358;12.282;2022-12-26T21:53:34;5.40;1.00
3794;DHT22;1912;51.358;12.282;2022-12-26T21:56:05;5.40;1.00
3794;DHT22;1912;51.358;12.282;2022-12-26T21:58:31;5.40;1.00
3794;DHT22;1912;51.358;12.282;2022-12-26T22:01:19;5.40;1.00
3794;DHT22;1912;51.358;12.282;2022-12-26T22:03:45;5.40;1.00
3794;DHT22;1912;51.358;12.282;2022-12-26T22:06:30;5.40;1.00
3794;DHT22;1912;51.358;12.282;2022-12-26T22:08:56;5.40;1.00
3794;DHT22;1912;51.358;12.282;2022-12-26T22:11:23;5.40;1.00
3794;DHT22;1912;51.358;12.282;2022-12-26T22:14:07;5.40;1.00
3794;DHT22;1912;51.358;12.282;2022-12-26T22:16:33;5.40;1.00
3794;DHT22;1912;51.358;12.282;2022-12-26T22:18:58;5.30;1.00
3794;DHT22;1912;51.358;12.282;2022-12-26T22:21:24;5.30;1.00
3794;DHT22;1912;51.358;12.282;2022-12-26T22:23:50;5.30;1.00
3794;DHT22;1912;51.358;12.282;2022-12-26T22:26:18;5.30;1.00
3794;DHT22;1912;51.358;12.282;2022-12-26T22:28:45;5.30;1.00
3794;DHT22;1912;51.358;12.282;2022-12-26T22:31:24;5.30;1.00
3794;DHT22;1912;51.358;12.282;2022-12-26T22:33:59;5.30;1.00
3794;DHT22;1912;51.358;12.282;2022-12-26T22:36:31;5.20;1.00
3794;DHT22;1912;51.358;12.282;2022-12-26T22:38:58;5.20;1.00
3794;DHT22;1912;51.358;12.282;2022-12-26T22:41:24;5.30;1.00
3794;DHT22;1912;51.358;12.282;2022-12-26T22:43:50;5.20;1.00
3794;DHT22;1912;51.358;12.282;2022-12-26T22:46:16;5.10;1.00
3794;DHT22;1912;51.358;12.282;2022-12-26T22:48:42;5.10;1.00
3794;DHT22;1912;51.358;12.282;2022-12-26T22:51:18;5.10;1.00
3794;DHT22;1912;51.358;12.282;2022-12-26T22:53:46;5.10;1.00
3794;DHT22;1912;51.358;12.282;2022-12-26T22:56:12;5.10;1.00
3794;DHT22;1912;51.358;12.282;2022-12-26T22:58:37;5.10;1.00
3794;DHT22;1912;51.358;12.282;2022-12-26T23:01:14;5.10;1.00
3794;DHT22;1912;51.358;12.282;2022-12-26T23:03:41;5.10;1.00
3794;DHT22;1912;51.358;12.282;2022-12-26T23:06:23;5.10;1.00
3794;DHT22;1912;51.358;12.282;2022-12-26T23:08:52;5.10;1.00
3794;DHT22;1912;51.358;12.282;2022-12-26T23:11:21;5.00;1.00
3794;DHT22;1912;51.358;12.282;2022-12-26T23:13:48;5.00;1.00
3794;DHT22;1912;51.358;12.282;2022-12-26T23:16:27;5.00;1.00
3794;DHT22;1912;51.358;12.282;2022-12-26T23:19:12;4.90;1.00
3794;DHT22;1912;51.358;12.282;2022-12-26T23:22:01;5.00;1.00
3794;DHT22;1912;51.358;12.282;2022-12-26T23:24:29;4.90;1.00
3794;DHT22;1912;51.358;12.282;2022-12-26T23:27:03;4.90;1.00
3794;DHT22;1912;51.358;12.282;2022-12-26T23:29:50;4.90;1.00
3794;DHT22;1912;51.358;12.282;2022-12-26T23:32:38;4.90;1.00
3794;DHT22;1912;51.358;12.282;2022-12-26T23:35:06;4.90;1.00
3794;DHT22;1912;51.358;12.282;2022-12-26T23:37:32;4.90;1.00
3794;DHT22;1912;51.358;12.282;2022-12-26T23:39:58;4.90;1.00
3794;DHT22;1912;51.358;12.282;2022-12-26T23:42:23;4.90;1.00
3794;DHT22;1912;51.358;12.282;2022-12-26T23:44:49;5.00;1.00
3794;DHT22;1912;51.358;12.282;2022-12-26T23:47:15;4.90;1.00
3794;DHT22;1912;51.358;12.282;2022-12-26T23:49:40;4.90;1.00
3794;DHT22;1912;51.358;12.282;2022-12-26T23:52:06;4.80;1.00
3794;DHT22;1912;51.358;12.282;2022-12-26T23:54:32;4.80;1.00
3794;DHT22;1912;51.358;12.282;2022-12-26T23:56:57;4.80;1.00
